createdAt,value
2018-04-22T00:00:17.248Z,18.75
2018-04-22T00:01:24.025Z,18.72
2018-04-22T00:02:30.758Z,18.70
2018-04-22T00:03:37.599Z,18.68
2018-04-22T00:04:44.359Z,18.65
2018-04-22T00:05:51.135Z,18.64
2018-04-22T00:06:57.859Z,18.61
2018-04-22T00:08:04.581Z,18.59
2018-04-22T00:09:11.383Z,18.56
2018-04-22T00:10:18.131Z,18.54
2018-04-22T00:11:24.880Z,18.53
2018-04-22T00:12:31.676Z,18.50
2018-04-22T00:13:38.499Z,18.48
2018-04-22T00:14:45.275Z,18.44
2018-04-22T00:15:52.015Z,18.41
2018-04-22T00:16:58.751Z,18.40
2018-04-22T00:18:05.599Z,18.37
2018-04-22T00:19:12.343Z,18.36
2018-04-22T00:20:19.118Z,18.33
2018-04-22T00:21:25.858Z,18.31
2018-04-22T00:22:32.725Z,18.28
2018-04-22T00:23:39.460Z,18.26
2018-04-22T00:24:46.194Z,18.24
2018-04-22T00:25:52.964Z,18.22
2018-04-22T00:26:59.705Z,18.19
2018-04-22T00:28:06.544Z,18.17
2018-04-22T00:29:13.138Z,18.15
2018-04-22T00:30:19.875Z,18.13
2018-04-22T00:31:26.636Z,18.12
2018-04-22T00:32:33.374Z,18.10
2018-04-22T00:33:40.226Z,18.07
2018-04-22T00:34:46.967Z,18.06
2018-04-22T00:35:53.739Z,18.04
2018-04-22T00:37:00.482Z,18.00
2018-04-22T00:38:07.331Z,18.00
2018-04-22T00:39:14.130Z,17.96
2018-04-22T00:40:20.893Z,17.94
2018-04-22T00:41:27.646Z,17.93
2018-04-22T00:42:34.434Z,17.89
2018-04-22T00:43:41.204Z,17.87
2018-04-22T00:44:47.961Z,17.87
2018-04-22T00:45:54.710Z,17.84
2018-04-22T00:47:01.516Z,17.82
2018-04-22T00:48:08.275Z,17.79
2018-04-22T00:49:15.011Z,17.77
2018-04-22T00:50:21.809Z,17.75
2018-04-22T00:51:28.672Z,17.72
2018-04-22T00:52:35.444Z,17.70
2018-04-22T00:53:42.187Z,17.68
2018-04-22T00:54:49.090Z,17.67
2018-04-22T00:55:55.858Z,17.63
2018-04-22T00:57:02.608Z,17.62
2018-04-22T00:58:09.362Z,17.60
2018-04-22T00:59:16.180Z,17.58
2018-04-22T01:00:22.935Z,17.56
2018-04-22T01:01:29.715Z,17.55
2018-04-22T01:02:36.439Z,17.53
2018-04-22T01:03:43.259Z,17.51
2018-04-22T01:04:50.016Z,17.49
2018-04-22T01:05:56.769Z,17.46
2018-04-22T01:07:03.524Z,17.43
2018-04-22T01:08:10.322Z,17.43
2018-04-22T01:09:17.066Z,17.40
2018-04-22T01:10:23.859Z,17.37
2018-04-22T01:11:30.624Z,17.37
2018-04-22T01:12:37.433Z,17.34
2018-04-22T01:13:44.205Z,17.31
2018-04-22T01:14:50.934Z,17.31
2018-04-22T01:15:57.748Z,17.29
2018-04-22T01:17:04.540Z,17.26
2018-04-22T01:18:11.288Z,17.25
2018-04-22T01:19:18.071Z,17.22
2018-04-22T01:20:24.793Z,17.21
2018-04-22T01:21:31.651Z,17.19
2018-04-22T01:22:38.399Z,17.17
2018-04-22T01:23:45.435Z,17.15
2018-04-22T01:24:52.175Z,17.12
2018-04-22T01:25:58.948Z,17.12
2018-04-22T01:27:05.699Z,17.08
2018-04-22T01:28:12.515Z,17.07
2018-04-22T01:29:19.236Z,17.05
2018-04-22T01:30:25.992Z,17.03
2018-04-22T01:31:32.776Z,17.01
2018-04-22T01:32:39.644Z,17.00
2018-04-22T01:33:46.378Z,16.97
2018-04-22T01:34:53.199Z,16.95
2018-04-22T01:35:59.945Z,16.94
2018-04-22T01:37:06.746Z,16.93
2018-04-22T01:38:13.509Z,16.91
2018-04-22T01:39:20.308Z,16.88
2018-04-22T01:40:27.175Z,16.86
2018-04-22T01:41:33.908Z,16.84
2018-04-22T01:42:40.663Z,16.84
2018-04-22T01:43:47.403Z,16.81
2018-04-22T01:44:54.264Z,16.80
2018-04-22T01:46:00.999Z,16.77
2018-04-22T01:47:07.739Z,16.75
2018-04-22T01:48:14.511Z,16.73
2018-04-22T01:49:21.318Z,16.71
2018-04-22T01:50:28.068Z,16.68
2018-04-22T01:51:34.827Z,16.67
2018-04-22T01:52:41.616Z,16.65
2018-04-22T01:53:48.411Z,16.65
2018-04-22T01:54:55.167Z,16.62
2018-04-22T01:56:01.948Z,16.61
2018-04-22T01:57:08.695Z,16.57
2018-04-22T01:58:15.540Z,16.55
2018-04-22T01:59:22.331Z,16.55
2018-04-22T02:00:29.076Z,16.53
2018-04-22T02:01:35.836Z,16.52
2018-04-22T02:02:42.611Z,16.49
2018-04-22T02:03:49.474Z,16.48
2018-04-22T02:04:56.213Z,16.46
2018-04-22T02:06:02.922Z,16.43
2018-04-22T02:07:09.708Z,16.42
2018-04-22T02:08:16.465Z,16.41
2018-04-22T02:09:23.228Z,16.38
2018-04-22T02:10:30.002Z,16.37
2018-04-22T02:11:36.791Z,16.34
2018-04-22T02:12:43.499Z,16.33
2018-04-22T02:13:50.255Z,16.33
2018-04-22T02:14:56.947Z,16.31
2018-04-22T02:16:03.679Z,16.28
2018-04-22T02:17:10.508Z,16.27
2018-04-22T02:18:17.251Z,16.24
2018-04-22T02:19:24.023Z,16.22
2018-04-22T02:20:30.744Z,16.21
2018-04-22T02:21:37.543Z,16.19
2018-04-22T02:22:44.359Z,16.17
2018-04-22T02:23:51.114Z,16.16
2018-04-22T02:24:57.851Z,16.14
2018-04-22T02:26:04.599Z,16.12
2018-04-22T02:27:11.353Z,16.10
2018-04-22T02:28:18.063Z,16.09
2018-04-22T02:29:24.803Z,16.07
2018-04-22T02:30:31.533Z,16.05
2018-04-22T02:31:38.588Z,16.03
2018-04-22T02:32:45.295Z,16.01
2018-04-22T02:33:52.103Z,15.99
2018-04-22T02:34:58.824Z,15.98
2018-04-22T02:36:05.611Z,15.96
2018-04-22T02:37:12.355Z,15.94
2018-04-22T02:38:19.071Z,15.94
2018-04-22T02:39:25.876Z,15.92
2018-04-22T02:40:32.625Z,15.89
2018-04-22T02:41:39.466Z,15.89
2018-04-22T02:42:46.267Z,15.87
2018-04-22T02:43:53.003Z,15.85
2018-04-22T02:44:59.753Z,15.83
2018-04-22T02:46:06.591Z,15.81
2018-04-22T02:47:13.382Z,15.79
2018-04-22T02:48:20.119Z,15.77
2018-04-22T02:49:26.852Z,15.76
2018-04-22T02:50:33.591Z,15.74
2018-04-22T02:51:40.342Z,15.72
2018-04-22T02:52:47.159Z,15.69
2018-04-22T02:53:53.893Z,15.69
2018-04-22T02:55:00.675Z,15.67
2018-04-22T02:56:07.541Z,15.66
2018-04-22T02:57:14.265Z,15.63
2018-04-22T02:58:21.023Z,15.62
2018-04-22T02:59:27.750Z,15.61
2018-04-22T03:00:34.467Z,15.59
2018-04-22T03:01:41.284Z,15.56
2018-04-22T03:02:48.102Z,15.55
2018-04-22T03:03:54.830Z,15.53
2018-04-22T03:05:01.865Z,15.52
2018-04-22T03:06:08.672Z,15.51
2018-04-22T03:07:15.447Z,15.49
2018-04-22T03:08:22.168Z,15.49
2018-04-22T03:09:28.908Z,15.47
2018-04-22T03:10:35.630Z,15.44
2018-04-22T03:11:42.370Z,15.42
2018-04-22T03:12:49.159Z,15.40
2018-04-22T03:13:55.902Z,15.38
2018-04-22T03:15:02.620Z,15.38
2018-04-22T03:16:09.386Z,15.35
2018-04-22T03:17:16.112Z,15.34
2018-04-22T03:18:22.887Z,15.33
2018-04-22T03:19:29.698Z,15.32
2018-04-22T03:20:36.416Z,15.30
2018-04-22T03:21:43.159Z,15.28
2018-04-22T03:22:49.963Z,15.27
2018-04-22T03:23:56.719Z,15.25
2018-04-22T03:25:03.472Z,15.23
2018-04-22T03:26:10.194Z,15.22
2018-04-22T03:27:17.056Z,15.20
2018-04-22T03:28:23.780Z,15.19
2018-04-22T03:29:30.526Z,15.18
2018-04-22T03:30:37.273Z,15.15
2018-04-22T03:31:44.099Z,15.14
2018-04-22T03:32:50.832Z,15.13
2018-04-22T03:33:57.569Z,15.12
2018-04-22T03:35:04.299Z,15.09
2018-04-22T03:36:11.053Z,15.07
2018-04-22T03:37:17.832Z,15.05
2018-04-22T03:38:24.574Z,15.05
2018-04-22T03:39:31.334Z,15.03
2018-04-22T03:40:38.053Z,15.01
2018-04-22T03:41:44.767Z,15.00
2018-04-22T03:42:51.575Z,15.00
2018-04-22T03:43:58.307Z,14.98
2018-04-22T03:45:05.080Z,14.95
2018-04-22T03:46:11.784Z,14.94
2018-04-22T03:47:18.510Z,14.92
2018-04-22T03:48:25.352Z,14.92
2018-04-22T03:49:32.119Z,14.89
2018-04-22T03:50:38.848Z,14.88
2018-04-22T03:51:45.760Z,14.87
2018-04-22T03:52:52.519Z,14.85
2018-04-22T03:53:59.291Z,14.85
2018-04-22T03:55:06.013Z,14.83
2018-04-22T03:56:12.854Z,14.80
2018-04-22T03:57:19.550Z,14.79
2018-04-22T03:58:26.302Z,14.77
2018-04-22T03:59:33.056Z,14.77
2018-04-22T04:00:39.786Z,14.75
2018-04-22T04:01:46.550Z,14.73
2018-04-22T04:02:53.268Z,14.71
2018-04-22T04:04:00.334Z,14.69
2018-04-22T04:05:07.057Z,14.69
2018-04-22T04:06:13.800Z,14.67
2018-04-22T04:07:20.569Z,14.66
2018-04-22T04:08:27.387Z,14.66
2018-04-22T04:09:34.139Z,14.64
2018-04-22T04:10:40.935Z,14.61
2018-04-22T04:11:47.791Z,14.61
2018-04-22T04:12:54.551Z,14.59
2018-04-22T04:14:01.292Z,14.58
2018-04-22T04:15:08.049Z,14.56
2018-04-22T04:16:14.832Z,14.54
2018-04-22T04:17:21.543Z,14.53
2018-04-22T04:18:28.286Z,14.54
2018-04-22T04:19:35.151Z,14.51
2018-04-22T04:20:42.105Z,14.49
2018-04-22T04:21:49.135Z,14.49
2018-04-22T04:22:56.026Z,14.46
2018-04-22T04:24:02.858Z,14.45
2018-04-22T04:25:17.356Z,14.42
2018-04-22T04:26:24.368Z,14.41
2018-04-22T04:27:31.322Z,14.40
2018-04-22T04:28:38.001Z,14.38
2018-04-22T04:29:44.744Z,14.38
2018-04-22T04:30:51.472Z,14.37
2018-04-22T04:31:58.212Z,14.35
2018-04-22T04:33:05.076Z,14.34
2018-04-22T04:34:11.823Z,14.32
2018-04-22T04:35:18.593Z,14.31
2018-04-22T04:36:25.311Z,14.30
2018-04-22T04:37:32.159Z,14.28
2018-04-22T04:38:38.906Z,14.27
2018-04-22T04:39:45.655Z,14.27
2018-04-22T04:40:52.443Z,14.25
2018-04-22T04:41:59.263Z,14.24
2018-04-22T04:43:06.066Z,14.22
2018-04-22T04:44:12.815Z,14.20
2018-04-22T04:45:19.563Z,14.20
2018-04-22T04:46:26.380Z,14.17
2018-04-22T04:47:33.102Z,14.17
2018-04-22T04:48:39.875Z,14.16
2018-04-22T04:49:46.614Z,14.14
2018-04-22T04:50:53.367Z,14.12
2018-04-22T04:52:00.120Z,14.12
2018-04-22T04:53:06.871Z,14.11
2018-04-22T04:54:13.595Z,14.09
2018-04-22T04:55:20.407Z,14.08
2018-04-22T04:56:27.195Z,14.07
2018-04-22T04:57:33.991Z,14.06
2018-04-22T04:58:40.840Z,14.02
2018-04-22T04:59:47.627Z,14.03
2018-04-22T05:00:54.441Z,14.03
2018-04-22T05:02:01.192Z,14.01
2018-04-22T05:03:07.911Z,13.98
2018-04-22T05:04:14.719Z,13.95
2018-04-22T05:05:21.435Z,13.96
2018-04-22T05:06:28.187Z,13.94
2018-04-22T05:07:34.935Z,13.94
2018-04-22T05:08:41.654Z,13.92
2018-04-22T05:09:48.467Z,13.92
2018-04-22T05:10:55.217Z,13.90
2018-04-22T05:12:01.966Z,13.88
2018-04-22T05:13:08.682Z,13.88
2018-04-22T05:14:15.535Z,13.87
2018-04-22T05:15:22.343Z,13.86
2018-04-22T05:16:29.115Z,13.86
2018-04-22T05:17:35.834Z,13.84
2018-04-22T05:18:42.591Z,13.82
2018-04-22T05:19:49.418Z,13.81
2018-04-22T05:20:56.162Z,13.81
2018-04-22T05:22:02.899Z,13.80
2018-04-22T05:23:09.659Z,13.79
2018-04-22T05:24:16.425Z,13.77
2018-04-22T05:25:23.147Z,13.78
2018-04-22T05:26:30.114Z,13.76
2018-04-22T05:27:36.863Z,13.76
2018-04-22T05:28:43.647Z,13.75
2018-04-22T05:29:50.384Z,13.74
2018-04-22T05:30:57.168Z,13.72
2018-04-22T05:32:03.942Z,13.73
2018-04-22T05:33:10.676Z,13.72
2018-04-22T05:34:17.399Z,13.72
2018-04-22T05:35:24.246Z,13.70
2018-04-22T05:36:31.022Z,13.70
2018-04-22T05:37:37.809Z,13.70
2018-04-22T05:38:44.494Z,13.69
2018-04-22T05:39:51.340Z,13.68
2018-04-22T05:40:58.058Z,13.68
2018-04-22T05:42:04.823Z,13.67
2018-04-22T05:43:11.566Z,13.67
2018-04-22T05:44:18.417Z,13.67
2018-04-22T05:45:25.144Z,13.66
2018-04-22T05:46:31.891Z,13.65
2018-04-22T05:47:38.646Z,13.67
2018-04-22T05:48:45.461Z,13.63
2018-04-22T05:49:52.215Z,13.65
2018-04-22T05:50:58.918Z,13.63
2018-04-22T05:52:05.687Z,13.63
2018-04-22T05:53:12.527Z,13.62
2018-04-22T05:54:19.243Z,13.62
2018-04-22T05:55:26.003Z,13.62
2018-04-22T05:56:32.767Z,13.61
2018-04-22T05:57:39.639Z,13.61
2018-04-22T05:58:46.380Z,13.61
2018-04-22T05:59:53.103Z,13.62
2018-04-22T06:01:00.090Z,13.62
2018-04-22T06:02:06.903Z,13.60
2018-04-22T06:03:13.731Z,13.62
2018-04-22T06:04:20.544Z,13.61
2018-04-22T06:05:27.362Z,13.61
2018-04-22T06:06:34.111Z,13.62
2018-04-22T06:07:41.018Z,13.62
2018-04-22T06:08:47.786Z,13.62
2018-04-22T06:09:54.514Z,13.62
2018-04-22T06:11:01.247Z,13.62
2018-04-22T06:12:08.099Z,13.63
2018-04-22T06:13:14.815Z,13.65
2018-04-22T06:14:21.548Z,13.65
2018-04-22T06:15:28.339Z,13.65
2018-04-22T06:16:35.179Z,13.66
2018-04-22T06:17:41.994Z,13.66
2018-04-22T06:18:48.759Z,13.67
2018-04-22T06:19:55.620Z,13.67
2018-04-22T06:21:02.335Z,13.68
2018-04-22T06:22:09.068Z,13.69
2018-04-22T06:23:15.823Z,13.69
2018-04-22T06:24:22.591Z,13.71
2018-04-22T06:25:29.389Z,13.72
2018-04-22T06:26:36.155Z,13.72
2018-04-22T06:27:42.884Z,13.74
2018-04-22T06:28:49.850Z,13.73
2018-04-22T06:29:56.596Z,13.73
2018-04-22T06:31:03.319Z,13.76
2018-04-22T06:32:10.102Z,13.78
2018-04-22T06:33:16.939Z,13.80
2018-04-22T06:34:23.687Z,13.81
2018-04-22T06:35:30.418Z,13.82
2018-04-22T06:36:37.151Z,13.84
2018-04-22T06:37:43.881Z,13.85
2018-04-22T06:38:50.683Z,13.86
2018-04-22T06:39:57.407Z,13.87
2018-04-22T06:41:04.149Z,13.91
2018-04-22T06:42:10.848Z,13.92
2018-04-22T06:43:17.607Z,13.94
2018-04-22T06:44:24.681Z,13.95
2018-04-22T06:45:31.400Z,13.96
2018-04-22T06:46:38.193Z,13.98
2018-04-22T06:47:44.947Z,14.02
2018-04-22T06:48:51.670Z,14.03
2018-04-22T06:49:58.460Z,14.05
2018-04-22T06:51:05.283Z,14.09
2018-04-22T06:52:12.017Z,14.11
2018-04-22T06:53:18.828Z,14.13
2018-04-22T06:54:25.566Z,14.16
2018-04-22T06:55:32.379Z,14.18
2018-04-22T06:56:39.163Z,14.19
2018-04-22T06:57:45.919Z,14.23
2018-04-22T06:58:52.871Z,14.25
2018-04-22T06:59:59.623Z,14.28
2018-04-22T07:01:06.376Z,14.31
2018-04-22T07:02:13.120Z,14.34
2018-04-22T07:03:19.908Z,14.35
2018-04-22T07:04:26.636Z,14.39
2018-04-22T07:05:33.408Z,14.41
2018-04-22T07:06:40.122Z,14.44
2018-04-22T07:07:46.832Z,14.47
2018-04-22T07:08:53.646Z,14.48
2018-04-22T07:10:00.364Z,14.53
2018-04-22T07:11:07.117Z,14.54
2018-04-22T07:12:13.840Z,14.57
2018-04-22T07:13:20.735Z,14.58
2018-04-22T07:14:27.436Z,14.62
2018-04-22T07:15:34.186Z,14.64
2018-04-22T07:16:40.937Z,14.65
2018-04-22T07:17:47.666Z,14.68
2018-04-22T07:18:54.447Z,14.69
2018-04-22T07:20:01.148Z,14.72
2018-04-22T07:21:07.880Z,14.75
2018-04-22T07:22:14.614Z,14.77
2018-04-22T07:23:21.570Z,14.80
2018-04-22T07:24:28.370Z,14.81
2018-04-22T07:25:35.107Z,14.83
2018-04-22T07:26:41.916Z,14.87
2018-04-22T07:27:48.635Z,14.87
2018-04-22T07:28:55.459Z,14.91
2018-04-22T07:30:02.196Z,14.92
2018-04-22T07:31:09.031Z,14.95
2018-04-22T07:32:15.874Z,14.96
2018-04-22T07:33:22.560Z,14.98
2018-04-22T07:34:29.294Z,15.00
2018-04-22T07:35:36.105Z,15.03
2018-04-22T07:36:42.848Z,15.05
2018-04-22T07:37:49.603Z,15.08
2018-04-22T07:38:56.327Z,15.10
2018-04-22T07:40:03.067Z,15.12
2018-04-22T07:41:09.830Z,15.14
2018-04-22T07:42:16.655Z,15.17
2018-04-22T07:43:23.370Z,15.19
2018-04-22T07:44:30.093Z,15.21
2018-04-22T07:45:36.919Z,15.23
2018-04-22T07:46:43.690Z,15.26
2018-04-22T07:47:50.444Z,15.29
2018-04-22T07:48:57.163Z,15.33
2018-04-22T07:50:03.872Z,15.34
2018-04-22T07:51:10.718Z,15.36
2018-04-22T07:52:17.511Z,15.38
2018-04-22T07:53:24.281Z,15.40
2018-04-22T07:54:31.105Z,15.44
2018-04-22T07:55:37.863Z,15.47
2018-04-22T07:56:44.592Z,15.50
2018-04-22T07:57:51.390Z,15.52
2018-04-22T07:58:58.167Z,15.55
2018-04-22T08:00:04.914Z,15.56
2018-04-22T08:01:11.676Z,15.59
2018-04-22T08:02:18.441Z,15.62
2018-04-22T08:03:25.226Z,15.66
2018-04-22T08:04:31.981Z,15.68
2018-04-22T08:05:38.726Z,15.71
2018-04-22T08:06:45.490Z,15.75
2018-04-22T08:07:52.347Z,15.76
2018-04-22T08:08:59.091Z,15.79
2018-04-22T08:10:05.830Z,15.85
2018-04-22T08:11:12.615Z,15.86
2018-04-22T08:12:19.442Z,15.89
2018-04-22T08:13:26.229Z,15.93
2018-04-22T08:14:33.011Z,15.95
2018-04-22T08:15:39.891Z,15.96
2018-04-22T08:16:46.683Z,16.00
2018-04-22T08:17:53.488Z,16.04
2018-04-22T08:19:00.436Z,16.06
2018-04-22T08:20:07.203Z,16.10
2018-04-22T08:21:13.980Z,16.13
2018-04-22T08:22:20.804Z,16.17
2018-04-22T08:23:27.598Z,16.18
2018-04-22T08:24:34.351Z,16.22
2018-04-22T08:25:41.127Z,16.25
2018-04-22T08:26:47.944Z,16.29
2018-04-22T08:27:54.758Z,16.31
2018-04-22T08:29:01.559Z,16.34
2018-04-22T08:30:08.387Z,16.38
2018-04-22T08:31:15.178Z,16.41
2018-04-22T08:32:21.963Z,16.46
2018-04-22T08:33:28.838Z,16.47
2018-04-22T08:34:35.621Z,16.52
2018-04-22T08:35:42.411Z,16.53
2018-04-22T08:36:49.139Z,16.56
2018-04-22T08:37:55.947Z,16.59
2018-04-22T08:39:02.746Z,16.64
2018-04-22T08:40:09.763Z,16.67
2018-04-22T08:41:16.490Z,16.71
2018-04-22T08:42:23.301Z,16.75
2018-04-22T08:43:30.322Z,16.78
2018-04-22T08:44:37.379Z,16.82
2018-04-22T08:45:44.139Z,16.86
2018-04-22T08:46:50.926Z,16.88
2018-04-22T08:47:57.803Z,16.92
2018-04-22T08:49:04.567Z,16.95
2018-04-22T08:50:11.407Z,16.97
2018-04-22T08:51:18.259Z,17.02
2018-04-22T08:52:25.106Z,17.06
2018-04-22T08:53:33.324Z,17.10
2018-04-22T08:54:39.040Z,17.12
2018-04-22T08:55:45.878Z,17.16
2018-04-22T08:56:52.629Z,17.21
2018-04-22T08:57:59.554Z,17.25
2018-04-22T08:59:06.563Z,17.27
2018-04-22T09:00:13.563Z,17.30
2018-04-22T09:01:20.460Z,17.33
2018-04-22T09:02:27.684Z,17.38
2018-04-22T09:03:34.574Z,17.42
2018-04-22T09:04:41.241Z,17.45
2018-04-22T09:05:48.020Z,17.50
2018-04-22T09:06:54.843Z,17.53
2018-04-22T09:08:01.603Z,17.56
2018-04-22T09:09:08.387Z,17.58
2018-04-22T09:10:15.212Z,17.63
2018-04-22T09:11:21.972Z,17.67
2018-04-22T09:12:28.768Z,17.70
2018-04-22T09:13:35.556Z,17.74
2018-04-22T09:14:42.414Z,17.78
2018-04-22T09:15:49.186Z,17.80
2018-04-22T09:16:56.068Z,17.84
2018-04-22T09:18:02.850Z,17.88
2018-04-22T09:19:09.611Z,17.92
2018-04-22T09:20:16.445Z,17.96
2018-04-22T09:21:23.314Z,18.00
2018-04-22T09:22:30.568Z,18.05
2018-04-22T09:23:37.724Z,18.08
2018-04-22T09:24:44.219Z,18.12
2018-04-22T09:25:51.122Z,18.14
2018-04-22T09:26:58.094Z,18.18
2018-04-22T09:28:05.187Z,18.22
2018-04-22T09:29:11.960Z,18.25
2018-04-22T09:30:18.783Z,18.29
2018-04-22T09:31:25.765Z,18.33
2018-04-22T09:32:32.574Z,18.38
2018-04-22T09:33:39.480Z,18.42
2018-04-22T09:34:46.566Z,18.46
2018-04-22T09:35:53.515Z,18.50
2018-04-22T09:37:00.426Z,18.53
2018-04-22T09:38:07.552Z,18.57
2018-04-22T09:39:14.363Z,18.60
2018-04-22T09:40:21.335Z,18.65
2018-04-22T09:41:28.233Z,18.69
2018-04-22T09:42:35.158Z,18.73
2018-04-22T09:43:41.980Z,18.76
2018-04-22T09:44:48.732Z,18.80
2018-04-22T09:45:55.605Z,18.85
2018-04-22T09:47:02.433Z,18.88
2018-04-22T09:48:09.414Z,18.93
2018-04-22T09:49:16.272Z,18.97
2018-04-22T09:50:23.213Z,19.00
2018-04-22T09:51:30.016Z,19.04
2018-04-22T09:52:36.863Z,19.10
2018-04-22T09:53:43.731Z,19.12
2018-04-22T09:54:50.571Z,19.16
2018-04-22T09:55:57.487Z,19.21
2018-04-22T09:57:04.319Z,19.26
2018-04-22T09:58:11.139Z,19.28
2018-04-22T09:59:18.086Z,19.32
2018-04-22T10:00:24.981Z,19.38
2018-04-22T10:01:31.890Z,19.39
2018-04-22T10:02:38.951Z,19.45
2018-04-22T10:03:45.824Z,19.50
2018-04-22T10:04:52.984Z,19.53
2018-04-22T10:05:59.891Z,19.57
2018-04-22T10:07:06.987Z,19.61
2018-04-22T10:08:13.931Z,19.64
2018-04-22T10:09:20.707Z,19.70
2018-04-22T10:10:27.513Z,19.72
2018-04-22T10:11:34.331Z,19.76
2018-04-22T10:12:41.101Z,19.81
2018-04-22T10:13:47.977Z,19.84
2018-04-22T10:14:54.746Z,19.89
2018-04-22T10:16:01.520Z,19.91
2018-04-22T10:17:08.302Z,19.95
2018-04-22T10:18:15.119Z,19.98
2018-04-22T10:19:21.893Z,20.02
2018-04-22T10:20:28.679Z,20.04
2018-04-22T10:21:35.570Z,20.09
2018-04-22T10:22:42.582Z,20.14
2018-04-22T10:23:49.090Z,20.16
2018-04-22T10:24:55.829Z,20.21
2018-04-22T10:26:02.694Z,20.24
2018-04-22T10:27:09.455Z,20.27
2018-04-22T10:28:16.241Z,20.31
2018-04-22T10:29:23.000Z,20.35
2018-04-22T10:30:29.826Z,20.39
2018-04-22T10:31:36.626Z,20.43
2018-04-22T10:32:43.525Z,20.46
2018-04-22T10:33:50.396Z,20.51
2018-04-22T10:34:57.124Z,20.54
2018-04-22T10:36:04.255Z,20.59
2018-04-22T10:37:11.046Z,20.63
2018-04-22T10:38:17.930Z,20.66
2018-04-22T10:39:24.760Z,20.70
2018-04-22T10:40:31.467Z,20.72
2018-04-22T10:41:38.522Z,20.76
2018-04-22T10:42:45.402Z,20.81
2018-04-22T10:43:52.210Z,20.84
2018-04-22T10:44:58.990Z,20.87
2018-04-22T10:46:05.770Z,20.91
2018-04-22T10:47:12.592Z,20.95
2018-04-22T10:48:19.398Z,20.97
2018-04-22T10:49:26.183Z,21.01
2018-04-22T10:50:33.058Z,21.04
2018-04-22T10:51:39.775Z,21.08
2018-04-22T10:52:46.535Z,21.11
2018-04-22T10:53:53.352Z,21.15
2018-04-22T10:55:00.166Z,21.17
2018-04-22T10:56:06.960Z,21.19
2018-04-22T10:57:13.750Z,21.25
2018-04-22T10:58:20.651Z,21.28
2018-04-22T10:59:27.482Z,21.31
2018-04-22T11:00:34.281Z,21.34
2018-04-22T11:01:41.078Z,21.36
2018-04-22T11:02:47.839Z,21.39
2018-04-22T11:03:54.668Z,21.43
2018-04-22T11:05:01.560Z,21.47
2018-04-22T11:06:08.347Z,21.50
2018-04-22T11:07:15.218Z,21.53
2018-04-22T11:08:22.017Z,21.55
2018-04-22T11:09:28.810Z,21.59
2018-04-22T11:10:35.594Z,21.63
2018-04-22T11:11:42.486Z,21.68
2018-04-22T11:12:49.238Z,21.70
2018-04-22T11:13:56.147Z,21.72
2018-04-22T11:15:03.263Z,21.76
2018-04-22T11:16:09.802Z,21.78
2018-04-22T11:17:18.030Z,21.83
2018-04-22T11:18:23.814Z,21.85
2018-04-22T11:19:30.627Z,21.91
2018-04-22T11:20:37.406Z,21.93
2018-04-22T11:21:44.378Z,21.95
2018-04-22T11:22:51.203Z,22.00
2018-04-22T11:23:58.067Z,22.03
2018-04-22T11:25:04.870Z,22.06
2018-04-22T11:26:11.654Z,22.10
2018-04-22T11:27:18.760Z,22.12
2018-04-22T11:28:25.957Z,22.15
2018-04-22T11:29:32.322Z,22.18
2018-04-22T11:30:39.234Z,22.21
2018-04-22T11:31:46.112Z,22.24
2018-04-22T11:32:52.902Z,22.28
2018-04-22T11:33:59.675Z,22.32
2018-04-22T11:35:06.562Z,22.35
2018-04-22T11:36:13.353Z,22.37
2018-04-22T11:37:20.164Z,22.43
2018-04-22T11:38:27.042Z,22.45
2018-04-22T11:39:33.804Z,22.49
2018-04-22T11:40:40.592Z,22.50
2018-04-22T11:41:47.355Z,22.55
2018-04-22T11:42:54.105Z,22.58
2018-04-22T11:44:00.853Z,22.62
2018-04-22T11:45:07.675Z,22.63
2018-04-22T11:46:14.463Z,22.68
2018-04-22T11:47:21.242Z,22.72
2018-04-22T11:48:27.982Z,22.74
2018-04-22T11:49:34.751Z,22.76
2018-04-22T11:50:41.474Z,22.80
2018-04-22T11:51:48.350Z,22.83
2018-04-22T11:52:55.103Z,22.86
2018-04-22T11:54:01.845Z,22.88
2018-04-22T11:55:08.626Z,22.90
2018-04-22T11:56:15.475Z,22.94
2018-04-22T11:57:22.235Z,22.96
2018-04-22T11:58:29.031Z,23.00
2018-04-22T11:59:35.772Z,23.04
2018-04-22T12:00:42.550Z,23.07
2018-04-22T12:01:49.378Z,23.09
2018-04-22T12:02:56.098Z,23.12
2018-04-22T12:04:02.864Z,23.15
2018-04-22T12:05:09.669Z,23.17
2018-04-22T12:06:16.440Z,23.20
2018-04-22T12:07:23.235Z,23.24
2018-04-22T12:08:29.982Z,23.27
2018-04-22T12:09:36.782Z,23.30
2018-04-22T12:10:43.581Z,23.34
2018-04-22T12:11:50.338Z,23.35
2018-04-22T12:12:57.179Z,23.38
2018-04-22T12:14:03.979Z,23.41
2018-04-22T12:15:10.708Z,23.44
2018-04-22T12:16:17.470Z,23.47
2018-04-22T12:17:24.302Z,23.48
2018-04-22T12:18:31.109Z,23.51
2018-04-22T12:19:37.878Z,23.54
2018-04-22T12:20:44.727Z,23.56
2018-04-22T12:21:51.518Z,23.58
2018-04-22T12:22:58.333Z,23.62
2018-04-22T12:24:05.187Z,23.63
2018-04-22T12:25:11.970Z,23.67
2018-04-22T12:26:18.816Z,23.69
2018-04-22T12:27:25.650Z,23.69
2018-04-22T12:28:32.434Z,23.73
2018-04-22T12:29:39.212Z,23.76
2018-04-22T12:30:46.032Z,23.77
2018-04-22T12:31:52.821Z,23.81
2018-04-22T12:32:59.668Z,23.83
2018-04-22T12:34:06.494Z,23.85
2018-04-22T12:35:13.293Z,23.86
2018-04-22T12:36:20.073Z,23.89
2018-04-22T12:37:26.907Z,23.90
2018-04-22T12:38:33.742Z,23.92
2018-04-22T12:39:40.718Z,23.95
2018-04-22T12:40:47.539Z,23.97
2018-04-22T12:41:54.319Z,23.99
2018-04-22T12:43:01.175Z,24.01
2018-04-22T12:44:07.922Z,24.03
2018-04-22T12:45:14.672Z,24.05
2018-04-22T12:46:21.414Z,24.08
2018-04-22T12:47:28.184Z,24.10
2018-04-22T12:48:35.151Z,24.11
2018-04-22T12:49:41.917Z,24.13
2018-04-22T12:50:48.727Z,24.16
2018-04-22T12:51:55.461Z,24.16
2018-04-22T12:53:02.313Z,24.18
2018-04-22T12:54:09.225Z,24.20
2018-04-22T12:55:15.975Z,24.24
2018-04-22T12:56:22.754Z,24.24
2018-04-22T12:57:29.605Z,24.26
2018-04-22T12:58:36.462Z,24.28
2018-04-22T12:59:43.218Z,24.30
2018-04-22T13:00:50.054Z,24.31
2018-04-22T13:01:56.846Z,24.33
2018-04-22T13:03:03.602Z,24.35
2018-04-22T13:04:10.503Z,24.37
2018-04-22T13:05:17.301Z,24.39
2018-04-22T13:06:24.042Z,24.40
2018-04-22T13:07:30.765Z,24.43
2018-04-22T13:08:37.607Z,24.45
2018-04-22T13:09:44.338Z,24.46
2018-04-22T13:10:51.073Z,24.48
2018-04-22T13:11:58.211Z,24.50
2018-04-22T13:13:05.022Z,24.52
2018-04-22T13:14:11.778Z,24.53
2018-04-22T13:15:18.571Z,24.55
2018-04-22T13:16:25.315Z,24.56
2018-04-22T13:17:32.051Z,24.59
2018-04-22T13:18:38.794Z,24.59
2018-04-22T13:19:45.687Z,24.62
2018-04-22T13:20:52.423Z,24.65
2018-04-22T13:21:59.214Z,24.66
2018-04-22T13:23:06.111Z,24.67
2018-04-22T13:24:12.874Z,24.69
2018-04-22T13:25:19.646Z,24.70
2018-04-22T13:26:26.364Z,24.73
2018-04-22T13:27:33.168Z,24.73
2018-04-22T13:28:39.914Z,24.74
2018-04-22T13:29:46.647Z,24.76
2018-04-22T13:30:53.440Z,24.78
2018-04-22T13:32:00.271Z,24.78
2018-04-22T13:33:07.028Z,24.80
2018-04-22T13:34:13.852Z,24.82
2018-04-22T13:35:20.721Z,24.83
2018-04-22T13:36:27.459Z,24.84
2018-04-22T13:37:34.255Z,24.85
2018-04-22T13:38:40.996Z,24.88
2018-04-22T13:39:47.811Z,24.89
2018-04-22T13:40:54.586Z,24.89
2018-04-22T13:42:01.331Z,24.91
2018-04-22T13:43:08.135Z,24.92
2018-04-22T13:44:14.956Z,24.94
2018-04-22T13:45:21.714Z,24.95
2018-04-22T13:46:28.463Z,24.97
2018-04-22T13:47:35.284Z,24.98
2018-04-22T13:48:42.086Z,24.99
2018-04-22T13:49:48.892Z,25.02
2018-04-22T13:50:55.646Z,25.03
2018-04-22T13:52:02.474Z,25.05
2018-04-22T13:53:09.209Z,25.05
2018-04-22T13:54:15.992Z,25.06
2018-04-22T13:55:22.715Z,25.08
2018-04-22T13:56:29.438Z,25.08
2018-04-22T13:57:36.209Z,25.10
2018-04-22T13:58:43.006Z,25.11
2018-04-22T13:59:49.768Z,25.12
2018-04-22T14:00:56.559Z,25.13
2018-04-22T14:02:03.323Z,25.14
2018-04-22T14:03:10.130Z,25.16
2018-04-22T14:04:16.900Z,25.17
2018-04-22T14:05:23.683Z,25.17
2018-04-22T14:06:30.470Z,25.18
2018-04-22T14:07:37.211Z,25.19
2018-04-22T14:08:43.957Z,25.21
2018-04-22T14:09:50.691Z,25.21
2018-04-22T14:10:57.547Z,25.22
2018-04-22T14:12:04.302Z,25.24
2018-04-22T14:13:11.033Z,25.25
2018-04-22T14:14:17.791Z,25.27
2018-04-22T14:15:24.506Z,25.27
2018-04-22T14:16:31.331Z,25.29
2018-04-22T14:17:38.462Z,25.30
2018-04-22T14:18:45.210Z,25.31
2018-04-22T14:19:51.995Z,25.32